sensor_id;sensor_type;location;lat;lon;timestamp;P1;durP1;ratioP1;P2;durP2;ratioP2
50483;SDS011;36409;52.168;20.878;2023-04-23T00:01:54;36.00;;;18.92;;
50483;SDS011;36409;52.168;20.878;2023-04-23T00:04:31;32.65;;;18.35;;
50483;SDS011;36409;52.168;20.878;2023-04-23T00:07:12;31.60;;;18.00;;
50483;SDS011;36409;52.168;20.878;2023-04-23T00:09:46;31.47;;;19.13;;
50483;SDS011;36409;52.168;20.878;2023-04-23T00:12:23;33.17;;;18.53;;
50483;SDS011;36409;52.168;20.878;2023-04-23T00:14:59;33.10;;;19.03;;
50483;SDS011;36409;52.168;20.878;2023-04-23T00:17:36;32.80;;;19.07;;
50483;SDS011;36409;52.168;20.878;2023-04-23T00:20:09;29.73;;;17.33;;
50483;SDS011;36409;52.168;20.878;2023-04-23T00:22:42;31.42;;;18.82;;
50483;SDS011;36409;52.168;20.878;2023-04-23T00:25:14;31.90;;;18.73;;
50483;SDS011;36409;52.168;20.878;2023-04-23T00:27:47;31.63;;;18.87;;
50483;SDS011;36409;52.168;20.878;2023-04-23T00:30:19;34.67;;;20.67;;
50483;SDS011;36409;52.168;20.878;2023-04-23T00:32:55;36.03;;;20.60;;
50483;SDS011;36409;52.168;20.878;2023-04-23T00:35:27;37.70;;;20.83;;
50483;SDS011;36409;52.168;20.878;2023-04-23T00:38:00;39.27;;;19.40;;
50483;SDS011;36409;52.168;20.878;2023-04-23T00:40:33;32.43;;;20.00;;
50483;SDS011;36409;52.168;20.878;2023-04-23T00:43:06;39.50;;;20.50;;
50483;SDS011;36409;52.168;20.878;2023-04-23T00:45:40;32.80;;;19.10;;
50483;SDS011;36409;52.168;20.878;2023-04-23T00:48:13;36.35;;;19.60;;
50483;SDS011;36409;52.168;20.878;2023-04-23T00:50:46;33.43;;;19.73;;
50483;SDS011;36409;52.168;20.878;2023-04-23T00:53:19;34.53;;;19.57;;
50483;SDS011;36409;52.168;20.878;2023-04-23T00:55:52;34.03;;;19.53;;
50483;SDS011;36409;52.168;20.878;2023-04-23T00:58:24;34.10;;;18.63;;
50483;SDS011;36409;52.168;20.878;2023-04-23T01:00:57;31.50;;;19.00;;
50483;SDS011;36409;52.168;20.878;2023-04-23T01:03:33;30.63;;;18.40;;
50483;SDS011;36409;52.168;20.878;2023-04-23T01:06:10;35.83;;;19.67;;
50483;SDS011;36409;52.168;20.878;2023-04-23T01:08:43;33.43;;;19.13;;
50483;SDS011;36409;52.168;20.878;2023-04-23T01:11:17;31.83;;;18.33;;
50483;SDS011;36409;52.168;20.878;2023-04-23T01:13:51;32.15;;;18.57;;
50483;SDS011;36409;52.168;20.878;2023-04-23T01:16:25;36.03;;;19.17;;
50483;SDS011;36409;52.168;20.878;2023-04-23T01:18:57;35.70;;;18.82;;
50483;SDS011;36409;52.168;20.878;2023-04-23T01:24:06;31.73;;;17.30;;
50483;SDS011;36409;52.168;20.878;2023-04-23T01:26:39;34.20;;;17.17;;
50483;SDS011;36409;52.168;20.878;2023-04-23T01:29:13;31.33;;;16.93;;
50483;SDS011;36409;52.168;20.878;2023-04-23T01:31:46;33.57;;;18.80;;
50483;SDS011;36409;52.168;20.878;2023-04-23T01:34:20;28.63;;;17.33;;
50483;SDS011;36409;52.168;20.878;2023-04-23T01:36:53;31.70;;;18.40;;
50483;SDS011;36409;52.168;20.878;2023-04-23T01:39:27;33.38;;;17.50;;
50483;SDS011;36409;52.168;20.878;2023-04-23T01:42:03;27.35;;;16.65;;
50483;SDS011;36409;52.168;20.878;2023-04-23T01:44:36;32.45;;;18.10;;
50483;SDS011;36409;52.168;20.878;2023-04-23T01:47:09;28.77;;;16.40;;
50483;SDS011;36409;52.168;20.878;2023-04-23T01:49:42;27.53;;;18.20;;
50483;SDS011;36409;52.168;20.878;2023-04-23T01:52:15;34.30;;;16.97;;
50483;SDS011;36409;52.168;20.878;2023-04-23T01:54:48;30.25;;;16.45;;
50483;SDS011;36409;52.168;20.878;2023-04-23T01:57:21;31.13;;;17.50;;
50483;SDS011;36409;52.168;20.878;2023-04-23T01:59:56;31.43;;;16.50;;
50483;SDS011;36409;52.168;20.878;2023-04-23T02:02:43;33.23;;;16.40;;
50483;SDS011;36409;52.168;20.878;2023-04-23T02:05:17;27.60;;;15.75;;
50483;SDS011;36409;52.168;20.878;2023-04-23T02:07:51;31.00;;;15.70;;
50483;SDS011;36409;52.168;20.878;2023-04-23T02:10:23;28.10;;;15.20;;
50483;SDS011;36409;52.168;20.878;2023-04-23T02:12:56;26.70;;;16.47;;
50483;SDS011;36409;52.168;20.878;2023-04-23T02:15:29;29.10;;;16.03;;
50483;SDS011;36409;52.168;20.878;2023-04-23T02:18:06;31.40;;;16.63;;
50483;SDS011;36409;52.168;20.878;2023-04-23T02:20:40;30.57;;;15.63;;
50483;SDS011;36409;52.168;20.878;2023-04-23T02:23:13;27.02;;;14.90;;
50483;SDS011;36409;52.168;20.878;2023-04-23T02:25:46;28.30;;;15.30;;
50483;SDS011;36409;52.168;20.878;2023-04-23T02:28:19;24.57;;;15.00;;
50483;SDS011;36409;52.168;20.878;2023-04-23T02:30:52;32.10;;;15.27;;
50483;SDS011;36409;52.168;20.878;2023-04-23T02:33:24;29.40;;;14.73;;
50483;SDS011;36409;52.168;20.878;2023-04-23T02:35:57;26.80;;;15.77;;
50483;SDS011;36409;52.168;20.878;2023-04-23T02:38:30;27.97;;;14.93;;
50483;SDS011;36409;52.168;20.878;2023-04-23T02:41:03;30.57;;;15.50;;
50483;SDS011;36409;52.168;20.878;2023-04-23T02:43:37;25.77;;;14.77;;
50483;SDS011;36409;52.168;20.878;2023-04-23T02:46:11;26.05;;;14.35;;
50483;SDS011;36409;52.168;20.878;2023-04-23T02:48:43;27.85;;;15.90;;
50483;SDS011;36409;52.168;20.878;2023-04-23T02:51:15;32.90;;;15.70;;
50483;SDS011;36409;52.168;20.878;2023-04-23T02:53:48;29.00;;;15.73;;
50483;SDS011;36409;52.168;20.878;2023-04-23T02:56:22;27.57;;;14.63;;
50483;SDS011;36409;52.168;20.878;2023-04-23T02:58:55;25.00;;;14.60;;
50483;SDS011;36409;52.168;20.878;2023-04-23T03:01:28;23.25;;;13.75;;
50483;SDS011;36409;52.168;20.878;2023-04-23T03:04:00;30.80;;;15.77;;
50483;SDS011;36409;52.168;20.878;2023-04-23T03:06:34;30.48;;;14.78;;
50483;SDS011;36409;52.168;20.878;2023-04-23T03:09:06;24.60;;;13.63;;
50483;SDS011;36409;52.168;20.878;2023-04-23T03:11:40;23.70;;;13.28;;
50483;SDS011;36409;52.168;20.878;2023-04-23T03:14:14;24.27;;;14.60;;
50483;SDS011;36409;52.168;20.878;2023-04-23T03:16:47;24.60;;;14.50;;
50483;SDS011;36409;52.168;20.878;2023-04-23T03:19:20;25.40;;;14.40;;
50483;SDS011;36409;52.168;20.878;2023-04-23T03:21:56;24.00;;;13.80;;
50483;SDS011;36409;52.168;20.878;2023-04-23T03:24:29;29.37;;;14.27;;
50483;SDS011;36409;52.168;20.878;2023-04-23T03:27:02;25.00;;;14.57;;
50483;SDS011;36409;52.168;20.878;2023-04-23T03:29:39;25.47;;;14.27;;
50483;SDS011;36409;52.168;20.878;2023-04-23T03:32:12;26.00;;;14.70;;
50483;SDS011;36409;52.168;20.878;2023-04-23T03:34:45;24.97;;;14.17;;
50483;SDS011;36409;52.168;20.878;2023-04-23T03:37:18;23.50;;;15.10;;
50483;SDS011;36409;52.168;20.878;2023-04-23T03:39:51;28.23;;;13.37;;
50483;SDS011;36409;52.168;20.878;2023-04-23T03:42:24;26.57;;;13.20;;
50483;SDS011;36409;52.168;20.878;2023-04-23T03:44:57;22.80;;;13.35;;
50483;SDS011;36409;52.168;20.878;2023-04-23T03:47:31;24.40;;;14.20;;
50483;SDS011;36409;52.168;20.878;2023-04-23T03:50:09;27.73;;;14.67;;
50483;SDS011;36409;52.168;20.878;2023-04-23T03:52:43;27.77;;;14.67;;
50483;SDS011;36409;52.168;20.878;2023-04-23T03:55:22;24.87;;;13.40;;
50483;SDS011;36409;52.168;20.878;2023-04-23T03:57:55;21.17;;;13.90;;
50483;SDS011;36409;52.168;20.878;2023-04-23T04:00:41;21.53;;;13.80;;
50483;SDS011;36409;52.168;20.878;2023-04-23T04:03:16;25.27;;;13.63;;
50483;SDS011;36409;52.168;20.878;2023-04-23T04:05:49;26.27;;;14.07;;
50483;SDS011;36409;52.168;20.878;2023-04-23T04:08:21;23.27;;;13.40;;
50483;SDS011;36409;52.168;20.878;2023-04-23T04:10:55;28.00;;;14.30;;
50483;SDS011;36409;52.168;20.878;2023-04-23T04:13:28;23.00;;;13.70;;
50483;SDS011;36409;52.168;20.878;2023-04-23T04:16:01;26.00;;;14.30;;
50483;SDS011;36409;52.168;20.878;2023-04-23T04:18:34;20.23;;;12.57;;
50483;SDS011;36409;52.168;20.878;2023-04-23T04:21:08;24.92;;;14.03;;
50483;SDS011;36409;52.168;20.878;2023-04-23T04:23:40;25.87;;;13.80;;
50483;SDS011;36409;52.168;20.878;2023-04-23T04:26:16;21.27;;;12.80;;
50483;SDS011;36409;52.168;20.878;2023-04-23T04:28:49;24.80;;;13.27;;
50483;SDS011;36409;52.168;20.878;2023-04-23T04:31:22;23.23;;;12.97;;
50483;SDS011;36409;52.168;20.878;2023-04-23T04:33:57;23.40;;;12.27;;
50483;SDS011;36409;52.168;20.878;2023-04-23T04:36:32;21.33;;;11.50;;
50483;SDS011;36409;52.168;20.878;2023-04-23T04:39:06;20.00;;;12.23;;
50483;SDS011;36409;52.168;20.878;2023-04-23T04:41:43;21.50;;;12.50;;
50483;SDS011;36409;52.168;20.878;2023-04-23T04:44:18;18.33;;;11.87;;
50483;SDS011;36409;52.168;20.878;2023-04-23T04:46:54;19.43;;;11.33;;
50483;SDS011;36409;52.168;20.878;2023-04-23T04:49:27;24.40;;;13.93;;
50483;SDS011;36409;52.168;20.878;2023-04-23T04:52:00;25.47;;;14.80;;
50483;SDS011;36409;52.168;20.878;2023-04-23T04:54:38;24.53;;;15.27;;
50483;SDS011;36409;52.168;20.878;2023-04-23T04:57:12;21.87;;;14.17;;
50483;SDS011;36409;52.168;20.878;2023-04-23T04:59:45;19.57;;;11.83;;
50483;SDS011;36409;52.168;20.878;2023-04-23T05:02:18;14.83;;;10.73;;
50483;SDS011;36409;52.168;20.878;2023-04-23T05:04:52;16.85;;;10.60;;
50483;SDS011;36409;52.168;20.878;2023-04-23T05:07:24;18.17;;;11.10;;
50483;SDS011;36409;52.168;20.878;2023-04-23T05:10:00;20.33;;;11.00;;
50483;SDS011;36409;52.168;20.878;2023-04-23T05:12:34;16.90;;;10.43;;
50483;SDS011;36409;52.168;20.878;2023-04-23T05:15:10;16.10;;;10.37;;
50483;SDS011;36409;52.168;20.878;2023-04-23T05:20:14;18.73;;;10.20;;
50483;SDS011;36409;52.168;20.878;2023-04-23T05:22:52;15.53;;;10.10;;
50483;SDS011;36409;52.168;20.878;2023-04-23T05:25:28;13.23;;;8.97;;
50483;SDS011;36409;52.168;20.878;2023-04-23T05:28:05;14.70;;;9.23;;
50483;SDS011;36409;52.168;20.878;2023-04-23T05:30:39;13.13;;;9.23;;
50483;SDS011;36409;52.168;20.878;2023-04-23T05:33:12;15.80;;;9.53;;
50483;SDS011;36409;52.168;20.878;2023-04-23T05:35:49;16.77;;;8.97;;
50483;SDS011;36409;52.168;20.878;2023-04-23T05:38:23;12.90;;;8.20;;
50483;SDS011;36409;52.168;20.878;2023-04-23T05:40:56;15.60;;;9.50;;
50483;SDS011;36409;52.168;20.878;2023-04-23T05:43:29;11.73;;;8.77;;
50483;SDS011;36409;52.168;20.878;2023-04-23T05:46:01;14.35;;;8.78;;
50483;SDS011;36409;52.168;20.878;2023-04-23T05:48:39;17.03;;;9.00;;
50483;SDS011;36409;52.168;20.878;2023-04-23T05:51:11;15.20;;;9.27;;
50483;SDS011;36409;52.168;20.878;2023-04-23T05:53:44;12.63;;;8.33;;
50483;SDS011;36409;52.168;20.878;2023-04-23T05:56:16;13.83;;;8.83;;
50483;SDS011;36409;52.168;20.878;2023-04-23T05:58:50;13.60;;;9.20;;
50483;SDS011;36409;52.168;20.878;2023-04-23T06:01:23;14.33;;;8.80;;
50483;SDS011;36409;52.168;20.878;2023-04-23T06:03:55;17.85;;;9.28;;
50483;SDS011;36409;52.168;20.878;2023-04-23T06:06:31;17.60;;;9.40;;
50483;SDS011;36409;52.168;20.878;2023-04-23T06:09:05;14.87;;;8.47;;
50483;SDS011;36409;52.168;20.878;2023-04-23T06:11:37;14.17;;;8.27;;
50483;SDS011;36409;52.168;20.878;2023-04-23T06:14:10;13.37;;;7.90;;
50483;SDS011;36409;52.168;20.878;2023-04-23T06:16:45;13.17;;;8.40;;
50483;SDS011;36409;52.168;20.878;2023-04-23T06:19:21;15.00;;;8.63;;
50483;SDS011;36409;52.168;20.878;2023-04-23T06:21:56;13.47;;;7.90;;
50483;SDS011;36409;52.168;20.878;2023-04-23T06:24:28;11.97;;;8.30;;
50483;SDS011;36409;52.168;20.878;2023-04-23T06:27:01;15.40;;;8.60;;
50483;SDS011;36409;52.168;20.878;2023-04-23T06:29:37;13.50;;;7.07;;
50483;SDS011;36409;52.168;20.878;2023-04-23T06:32:11;13.33;;;7.87;;
50483;SDS011;36409;52.168;20.878;2023-04-23T06:34:47;13.13;;;7.70;;
50483;SDS011;36409;52.168;20.878;2023-04-23T06:37:30;13.43;;;7.40;;
50483;SDS011;36409;52.168;20.878;2023-04-23T06:40:09;18.47;;;7.70;;
50483;SDS011;36409;52.168;20.878;2023-04-23T06:42:43;11.97;;;7.07;;
50483;SDS011;36409;52.168;20.878;2023-04-23T06:45:16;16.80;;;7.45;;
50483;SDS011;36409;52.168;20.878;2023-04-23T06:47:49;11.10;;;6.80;;
50483;SDS011;36409;52.168;20.878;2023-04-23T06:50:22;12.20;;;7.30;;
50483;SDS011;36409;52.168;20.878;2023-04-23T06:52:56;14.80;;;7.00;;
50483;SDS011;36409;52.168;20.878;2023-04-23T06:55:29;10.25;;;6.35;;
50483;SDS011;36409;52.168;20.878;2023-04-23T06:58:07;18.07;;;7.40;;
50483;SDS011;36409;52.168;20.878;2023-04-23T07:00:43;10.87;;;6.33;;
50483;SDS011;36409;52.168;20.878;2023-04-23T07:03:17;10.80;;;5.90;;
50483;SDS011;36409;52.168;20.878;2023-04-23T07:05:50;12.53;;;6.53;;
50483;SDS011;36409;52.168;20.878;2023-04-23T07:08:23;10.33;;;6.30;;
50483;SDS011;36409;52.168;20.878;2023-04-23T07:10:55;14.03;;;6.47;;
50483;SDS011;36409;52.168;20.878;2023-04-23T07:13:28;9.57;;;6.27;;
50483;SDS011;36409;52.168;20.878;2023-04-23T07:16:02;10.97;;;6.47;;
50483;SDS011;36409;52.168;20.878;2023-04-23T07:18:35;11.77;;;6.00;;
50483;SDS011;36409;52.168;20.878;2023-04-23T07:21:09;14.03;;;6.07;;
50483;SDS011;36409;52.168;20.878;2023-04-23T07:23:41;9.90;;;5.17;;
50483;SDS011;36409;52.168;20.878;2023-04-23T07:26:14;9.38;;;5.30;;
50483;SDS011;36409;52.168;20.878;2023-04-23T07:28:48;11.63;;;5.77;;
50483;SDS011;36409;52.168;20.878;2023-04-23T07:31:21;9.23;;;4.90;;
50483;SDS011;36409;52.168;20.878;2023-04-23T07:33:55;11.22;;;4.92;;
50483;SDS011;36409;52.168;20.878;2023-04-23T07:36:27;9.77;;;4.63;;
50483;SDS011;36409;52.168;20.878;2023-04-23T07:39:03;7.67;;;4.43;;
50483;SDS011;36409;52.168;20.878;2023-04-23T07:41:36;13.93;;;4.33;;
50483;SDS011;36409;52.168;20.878;2023-04-23T07:44:12;9.60;;;4.90;;
50483;SDS011;36409;52.168;20.878;2023-04-23T07:46:45;8.57;;;4.80;;
50483;SDS011;36409;52.168;20.878;2023-04-23T07:49:21;8.10;;;4.60;;
50483;SDS011;36409;52.168;20.878;2023-04-23T07:51:54;9.73;;;4.47;;
50483;SDS011;36409;52.168;20.878;2023-04-23T07:54:26;10.00;;;4.57;;
50483;SDS011;36409;52.168;20.878;2023-04-23T07:56:59;8.83;;;4.90;;
50483;SDS011;36409;52.168;20.878;2023-04-23T07:59:32;12.15;;;4.37;;
50483;SDS011;36409;52.168;20.878;2023-04-23T08:02:08;8.70;;;4.17;;
50483;SDS011;36409;52.168;20.878;2023-04-23T08:04:40;6.62;;;3.95;;
50483;SDS011;36409;52.168;20.878;2023-04-23T08:07:13;8.87;;;4.60;;
50483;SDS011;36409;52.168;20.878;2023-04-23T08:09:46;8.13;;;4.23;;
50483;SDS011;36409;52.168;20.878;2023-04-23T08:12:19;7.40;;;4.07;;
50483;SDS011;36409;52.168;20.878;2023-04-23T08:14:55;6.60;;;3.47;;
50483;SDS011;36409;52.168;20.878;2023-04-23T08:17:32;8.00;;;3.63;;
50483;SDS011;36409;52.168;20.878;2023-04-23T08:20:06;7.63;;;3.90;;
50483;SDS011;36409;52.168;20.878;2023-04-23T08:22:41;8.47;;;3.63;;
50483;SDS011;36409;52.168;20.878;2023-04-23T08:25:15;7.00;;;3.57;;
50483;SDS011;36409;52.168;20.878;2023-04-23T08:27:48;9.03;;;3.80;;
50483;SDS011;36409;52.168;20.878;2023-04-23T08:30:20;8.20;;;3.60;;
50483;SDS011;36409;52.168;20.878;2023-04-23T08:32:53;10.30;;;3.40;;
50483;SDS011;36409;52.168;20.878;2023-04-23T08:35:26;5.78;;;3.33;;
50483;SDS011;36409;52.168;20.878;2023-04-23T08:38:00;8.37;;;4.13;;
50483;SDS011;36409;52.168;20.878;2023-04-23T08:40:36;9.13;;;3.67;;
50483;SDS011;36409;52.168;20.878;2023-04-23T08:43:15;9.33;;;3.50;;
50483;SDS011;36409;52.168;20.878;2023-04-23T08:45:49;8.97;;;3.60;;
50483;SDS011;36409;52.168;20.878;2023-04-23T08:48:23;7.33;;;3.60;;
50483;SDS011;36409;52.168;20.878;2023-04-23T08:50:57;9.17;;;4.07;;
50483;SDS011;36409;52.168;20.878;2023-04-23T08:53:35;8.30;;;3.33;;
50483;SDS011;36409;52.168;20.878;2023-04-23T08:56:13;6.67;;;2.83;;
50483;SDS011;36409;52.168;20.878;2023-04-23T08:58:46;8.50;;;3.20;;
50483;SDS011;36409;52.168;20.878;2023-04-23T09:01:19;5.07;;;3.07;;
50483;SDS011;36409;52.168;20.878;2023-04-23T09:03:55;5.20;;;3.40;;
50483;SDS011;36409;52.168;20.878;2023-04-23T09:06:28;6.50;;;3.67;;
50483;SDS011;36409;52.168;20.878;2023-04-23T09:09:02;7.40;;;3.20;;
50483;SDS011;36409;52.168;20.878;2023-04-23T09:11:36;6.50;;;3.30;;
50483;SDS011;36409;52.168;20.878;2023-04-23T09:14:10;4.97;;;2.97;;
50483;SDS011;36409;52.168;20.878;2023-04-23T09:16:44;5.97;;;3.20;;
50483;SDS011;36409;52.168;20.878;2023-04-23T09:19:17;7.67;;;3.40;;
50483;SDS011;36409;52.168;20.878;2023-04-23T09:21:51;8.47;;;3.83;;
50483;SDS011;36409;52.168;20.878;2023-04-23T09:24:27;7.07;;;2.80;;
50483;SDS011;36409;52.168;20.878;2023-04-23T09:27:00;5.30;;;2.70;;
50483;SDS011;36409;52.168;20.878;2023-04-23T09:29:32;4.13;;;2.47;;
50483;SDS011;36409;52.168;20.878;2023-04-23T09:32:06;7.00;;;2.92;;
50483;SDS011;36409;52.168;20.878;2023-04-23T09:34:39;6.37;;;3.40;;
50483;SDS011;36409;52.168;20.878;2023-04-23T09:37:16;7.00;;;3.03;;
50483;SDS011;36409;52.168;20.878;2023-04-23T09:39:49;6.43;;;2.60;;
50483;SDS011;36409;52.168;20.878;2023-04-23T09:42:27;6.70;;;3.23;;
50483;SDS011;36409;52.168;20.878;2023-04-23T09:45:01;5.23;;;3.40;;
50483;SDS011;36409;52.168;20.878;2023-04-23T09:47:37;6.47;;;3.67;;
50483;SDS011;36409;52.168;20.878;2023-04-23T09:50:17;7.83;;;3.40;;
50483;SDS011;36409;52.168;20.878;2023-04-23T09:53:01;7.83;;;3.20;;
50483;SDS011;36409;52.168;20.878;2023-04-23T09:55:37;5.87;;;3.17;;
50483;SDS011;36409;52.168;20.878;2023-04-23T09:58:20;5.93;;;2.90;;
50483;SDS011;36409;52.168;20.878;2023-04-23T10:00:57;5.17;;;2.60;;
50483;SDS011;36409;52.168;20.878;2023-04-23T10:03:42;4.87;;;2.77;;
50483;SDS011;36409;52.168;20.878;2023-04-23T10:06:15;8.57;;;3.00;;
50483;SDS011;36409;52.168;20.878;2023-04-23T10:09:07;5.03;;;2.60;;
50483;SDS011;36409;52.168;20.878;2023-04-23T10:11:40;5.58;;;2.65;;
50483;SDS011;36409;52.168;20.878;2023-04-23T10:14:14;6.50;;;3.20;;
50483;SDS011;36409;52.168;20.878;2023-04-23T10:16:46;5.83;;;2.70;;
50483;SDS011;36409;52.168;20.878;2023-04-23T10:19:22;6.83;;;2.90;;
50483;SDS011;36409;52.168;20.878;2023-04-23T10:21:56;6.50;;;3.00;;
50483;SDS011;36409;52.168;20.878;2023-04-23T10:24:51;4.60;;;2.67;;
50483;SDS011;36409;52.168;20.878;2023-04-23T10:27:28;4.47;;;2.47;;
50483;SDS011;36409;52.168;20.878;2023-04-23T10:30:20;4.67;;;2.52;;
50483;SDS011;36409;52.168;20.878;2023-04-23T10:32:53;4.62;;;2.60;;
50483;SDS011;36409;52.168;20.878;2023-04-23T10:35:26;5.67;;;2.53;;
50483;SDS011;36409;52.168;20.878;2023-04-23T10:38:01;6.23;;;2.77;;
50483;SDS011;36409;52.168;20.878;2023-04-23T10:40:38;4.20;;;2.60;;
50483;SDS011;36409;52.168;20.878;2023-04-23T10:43:17;7.15;;;2.75;;
50483;SDS011;36409;52.168;20.878;2023-04-23T10:45:50;7.00;;;2.93;;
50483;SDS011;36409;52.168;20.878;2023-04-23T10:48:22;5.17;;;2.63;;
50483;SDS011;36409;52.168;20.878;2023-04-23T10:51:00;6.07;;;2.43;;
50483;SDS011;36409;52.168;20.878;2023-04-23T10:53:53;5.57;;;2.60;;
50483;SDS011;36409;52.168;20.878;2023-04-23T10:56:27;6.80;;;2.77;;
50483;SDS011;36409;52.168;20.878;2023-04-23T10:59:03;4.30;;;2.40;;
50483;SDS011;36409;52.168;20.878;2023-04-23T11:01:37;7.07;;;2.97;;
50483;SDS011;36409;52.168;20.878;2023-04-23T11:04:23;5.67;;;2.97;;
50483;SDS011;36409;52.168;20.878;2023-04-23T11:07:02;4.83;;;2.40;;
50483;SDS011;36409;52.168;20.878;2023-04-23T11:09:42;5.73;;;2.63;;
50483;SDS011;36409;52.168;20.878;2023-04-23T11:15:27;7.23;;;2.97;;
50483;SDS011;36409;52.168;20.878;2023-04-23T11:18:03;7.43;;;3.07;;
50483;SDS011;36409;52.168;20.878;2023-04-23T11:20:36;5.33;;;2.80;;
50483;SDS011;36409;52.168;20.878;2023-04-23T11:23:14;6.37;;;2.80;;
50483;SDS011;36409;52.168;20.878;2023-04-23T11:26:02;4.90;;;2.77;;
50483;SDS011;36409;52.168;20.878;2023-04-23T11:28:37;4.50;;;2.77;;
50483;SDS011;36409;52.168;20.878;2023-04-23T11:31:12;4.47;;;2.63;;
50483;SDS011;36409;52.168;20.878;2023-04-23T11:36:16;7.03;;;2.43;;
50483;SDS011;36409;52.168;20.878;2023-04-23T11:38:50;6.43;;;2.73;;
50483;SDS011;36409;52.168;20.878;2023-04-23T11:41:32;4.97;;;2.73;;
50483;SDS011;36409;52.168;20.878;2023-04-23T11:44:07;4.77;;;2.60;;
50483;SDS011;36409;52.168;20.878;2023-04-23T11:46:47;6.23;;;2.83;;
50483;SDS011;36409;52.168;20.878;2023-04-23T11:49:21;5.33;;;2.80;;
50483;SDS011;36409;52.168;20.878;2023-04-23T11:51:54;4.80;;;2.70;;
50483;SDS011;36409;52.168;20.878;2023-04-23T11:54:35;5.40;;;2.67;;
50483;SDS011;36409;52.168;20.878;2023-04-23T11:57:13;5.20;;;2.70;;
50483;SDS011;36409;52.168;20.878;2023-04-23T11:59:46;6.42;;;2.67;;
50483;SDS011;36409;52.168;20.878;2023-04-23T12:02:19;7.10;;;3.60;;
50483;SDS011;36409;52.168;20.878;2023-04-23T12:05:05;12.10;;;3.27;;
50483;SDS011;36409;52.168;20.878;2023-04-23T12:07:38;9.33;;;3.00;;
50483;SDS011;36409;52.168;20.878;2023-04-23T12:10:16;5.17;;;2.57;;
50483;SDS011;36409;52.168;20.878;2023-04-23T12:12:51;5.20;;;2.83;;
50483;SDS011;36409;52.168;20.878;2023-04-23T12:15:24;6.45;;;3.20;;
50483;SDS011;36409;52.168;20.878;2023-04-23T12:18:08;5.83;;;3.10;;
50483;SDS011;36409;52.168;20.878;2023-04-23T12:23:14;4.67;;;2.47;;
50483;SDS011;36409;52.168;20.878;2023-04-23T12:25:47;6.03;;;3.10;;
50483;SDS011;36409;52.168;20.878;2023-04-23T12:28:23;7.10;;;2.53;;
50483;SDS011;36409;52.168;20.878;2023-04-23T12:31:01;4.83;;;2.60;;
50483;SDS011;36409;52.168;20.878;2023-04-23T12:33:36;8.37;;;2.83;;
50483;SDS011;36409;52.168;20.878;2023-04-23T12:36:13;5.33;;;3.00;;
50483;SDS011;36409;52.168;20.878;2023-04-23T12:38:45;5.53;;;2.70;;
50483;SDS011;36409;52.168;20.878;2023-04-23T12:41:22;4.63;;;2.53;;
50483;SDS011;36409;52.168;20.878;2023-04-23T12:43:54;6.60;;;2.63;;
50483;SDS011;36409;52.168;20.878;2023-04-23T12:46:34;5.37;;;2.90;;
50483;SDS011;36409;52.168;20.878;2023-04-23T12:49:14;5.07;;;2.43;;
50483;SDS011;36409;52.168;20.878;2023-04-23T12:51:46;7.50;;;3.10;;
50483;SDS011;36409;52.168;20.878;2023-04-23T12:54:21;6.33;;;2.67;;
50483;SDS011;36409;52.168;20.878;2023-04-23T12:56:55;5.00;;;2.73;;
50483;SDS011;36409;52.168;20.878;2023-04-23T12:59:32;4.85;;;2.85;;
50483;SDS011;36409;52.168;20.878;2023-04-23T13:02:09;5.97;;;2.83;;
50483;SDS011;36409;52.168;20.878;2023-04-23T13:04:43;5.12;;;2.92;;
50483;SDS011;36409;52.168;20.878;2023-04-23T13:07:15;5.10;;;2.63;;
50483;SDS011;36409;52.168;20.878;2023-04-23T13:09:48;5.97;;;2.87;;
50483;SDS011;36409;52.168;20.878;2023-04-23T13:12:24;4.53;;;2.63;;
50483;SDS011;36409;52.168;20.878;2023-04-23T13:14:56;5.47;;;3.03;;
50483;SDS011;36409;52.168;20.878;2023-04-23T13:17:30;6.47;;;3.37;;
50483;SDS011;36409;52.168;20.878;2023-04-23T13:20:07;5.30;;;2.73;;
50483;SDS011;36409;52.168;20.878;2023-04-23T13:22:41;5.13;;;2.80;;
50483;SDS011;36409;52.168;20.878;2023-04-23T13:25:14;7.50;;;3.60;;
50483;SDS011;36409;52.168;20.878;2023-04-23T13:27:46;6.17;;;2.67;;
50483;SDS011;36409;52.168;20.878;2023-04-23T13:30:19;4.00;;;2.50;;
50483;SDS011;36409;52.168;20.878;2023-04-23T13:32:51;4.37;;;2.67;;
50483;SDS011;36409;52.168;20.878;2023-04-23T13:35:26;6.47;;;2.63;;
50483;SDS011;36409;52.168;20.878;2023-04-23T13:38:04;7.70;;;3.10;;
50483;SDS011;36409;52.168;20.878;2023-04-23T13:40:40;8.47;;;3.37;;
50483;SDS011;36409;52.168;20.878;2023-04-23T13:43:14;4.87;;;2.63;;
50483;SDS011;36409;52.168;20.878;2023-04-23T13:45:46;6.67;;;3.10;;
50483;SDS011;36409;52.168;20.878;2023-04-23T13:48:19;5.47;;;2.73;;
50483;SDS011;36409;52.168;20.878;2023-04-23T13:50:57;4.90;;;2.63;;
50483;SDS011;36409;52.168;20.878;2023-04-23T13:53:42;5.23;;;2.40;;
50483;SDS011;36409;52.168;20.878;2023-04-23T13:56:14;5.27;;;2.63;;
50483;SDS011;36409;52.168;20.878;2023-04-23T13:58:47;10.57;;;2.73;;
50483;SDS011;36409;52.168;20.878;2023-04-23T14:01:22;6.50;;;3.50;;
50483;SDS011;36409;52.168;20.878;2023-04-23T14:03:55;6.72;;;3.47;;
50483;SDS011;36409;52.168;20.878;2023-04-23T14:06:35;5.20;;;2.80;;
50483;SDS011;36409;52.168;20.878;2023-04-23T14:09:11;6.30;;;3.30;;
50483;SDS011;36409;52.168;20.878;2023-04-23T14:11:44;6.47;;;3.30;;
50483;SDS011;36409;52.168;20.878;2023-04-23T14:14:16;5.58;;;2.87;;
50483;SDS011;36409;52.168;20.878;2023-04-23T14:16:49;7.87;;;2.93;;
50483;SDS011;36409;52.168;20.878;2023-04-23T14:19:25;5.53;;;3.00;;
50483;SDS011;36409;52.168;20.878;2023-04-23T14:21:58;7.23;;;2.93;;
50483;SDS011;36409;52.168;20.878;2023-04-23T14:24:43;7.20;;;3.00;;
50483;SDS011;36409;52.168;20.878;2023-04-23T14:27:19;5.40;;;3.00;;
50483;SDS011;36409;52.168;20.878;2023-04-23T14:29:56;8.30;;;2.60;;
50483;SDS011;36409;52.168;20.878;2023-04-23T14:32:37;4.43;;;2.97;;
50483;SDS011;36409;52.168;20.878;2023-04-23T14:38:10;5.83;;;3.10;;
50483;SDS011;36409;52.168;20.878;2023-04-23T14:40:43;6.10;;;3.27;;
50483;SDS011;36409;52.168;20.878;2023-04-23T14:43:19;5.77;;;2.70;;
50483;SDS011;36409;52.168;20.878;2023-04-23T14:45:51;5.60;;;2.60;;
50483;SDS011;36409;52.168;20.878;2023-04-23T14:48:25;7.93;;;3.50;;
50483;SDS011;36409;52.168;20.878;2023-04-23T14:50:58;5.83;;;2.90;;
50483;SDS011;36409;52.168;20.878;2023-04-23T14:53:31;4.80;;;3.13;;
50483;SDS011;36409;52.168;20.878;2023-04-23T14:56:04;6.13;;;3.03;;
50483;SDS011;36409;52.168;20.878;2023-04-23T14:58:37;9.03;;;3.53;;
50483;SDS011;36409;52.168;20.878;2023-04-23T15:01:11;6.17;;;3.60;;
50483;SDS011;36409;52.168;20.878;2023-04-23T15:03:45;4.70;;;2.95;;
50483;SDS011;36409;52.168;20.878;2023-04-23T15:06:22;6.33;;;3.30;;
50483;SDS011;36409;52.168;20.878;2023-04-23T15:08:58;5.93;;;3.43;;
50483;SDS011;36409;52.168;20.878;2023-04-23T15:11:31;6.33;;;2.93;;
50483;SDS011;36409;52.168;20.878;2023-04-23T15:14:07;6.50;;;3.07;;
50483;SDS011;36409;52.168;20.878;2023-04-23T15:16:48;7.70;;;3.10;;
50483;SDS011;36409;52.168;20.878;2023-04-23T15:19:23;5.67;;;2.77;;
50483;SDS011;36409;52.168;20.878;2023-04-23T15:22:01;4.60;;;3.00;;
50483;SDS011;36409;52.168;20.878;2023-04-23T15:24:34;8.80;;;3.20;;